Time;durP1;ratioP1;P1;durP2;ratioP2;P2;SDS_P1;SDS_P2;PMS_P1;PMS_P2;Temp;Humidity;BMP_temperature;BMP_pressure;BME280_temperature;BME280_humidity;BME280_pressure;Samples;Min_cycle;Max_cycle;Signal;HPM_P1;HPM_P2
2022/08/20 00:00:56;;;;;;;12.68;7.82;;;23.00;74.10;;;;;;5003202;28;20079;-66
2022/08/20 00:03:35;;;;;;;11.23;7.45;;;23.00;74.10;;;;;;5027971;28;20033;-66
2022/08/20 00:06:05;;;;;;;12.30;7.90;;;23.00;74.10;;;;;;5012114;28;20065;-67
2022/08/20 00:08:31;;;;;;;10.27;7.05;;;23.00;74.20;;;;;;5013355;28;20042;-66
2022/08/20 00:10:57;;;;;;;12.05;7.88;;;23.00;74.10;;;;;;5028333;28;20021;-66
2022/08/20 00:13:31;;;;;;;11.98;7.93;;;23.00;74.20;;;;;;5032827;28;20041;-66
2022/08/20 00:15:58;;;;;;;10.73;7.03;;;23.00;74.20;;;;;;5012196;28;20093;-66
2022/08/20 00:18:24;;;;;;;11.82;7.25;;;23.00;74.20;;;;;;5007396;28;20033;-66
2022/08/20 00:20:53;;;;;;;12.23;7.38;;;23.00;74.30;;;;;;5010107;28;20348;-66
2022/08/20 00:23:19;;;;;;;11.48;6.82;;;23.00;74.30;;;;;;5032741;28;20516;-66
2022/08/20 00:25:45;;;;;;;11.32;6.90;;;23.00;74.30;;;;;;5021045;28;20042;-66
2022/08/20 00:28:11;;;;;;;11.25;7.38;;;23.00;74.30;;;;;;5026597;28;20121;-66
2022/08/20 00:30:39;;;;;;;9.82;6.50;;;23.00;74.40;;;;;;5012597;28;20124;-66
2022/08/20 00:33:13;;;;;;;11.13;7.07;;;23.00;74.40;;;;;;4993746;28;20465;-66
2022/08/20 00:35:42;;;;;;;11.40;7.82;;;23.00;74.40;;;;;;5017704;28;20591;-66
2022/08/20 00:38:07;;;;;;;12.18;8.13;;;23.00;74.40;;;;;;5020864;28;20037;-66
2022/08/20 00:40:41;;;;;;;11.45;7.60;;;23.00;74.40;;;;;;5027482;28;20442;-67
2022/08/20 00:43:30;;;;;;;13.45;8.40;;;23.00;74.50;;;;;;5021041;28;20026;-66
2022/08/20 00:45:57;;;;;;;14.98;8.60;;;23.00;74.50;;;;;;5015446;28;20030;-66
2022/08/20 00:48:26;;;;;;;12.38;8.38;;;23.00;74.50;;;;;;5022802;28;20068;-66
2022/08/20 00:50:55;;;;;;;12.45;8.73;;;23.00;74.70;;;;;;5010059;28;20069;-66
2022/08/20 00:53:23;;;;;;;12.88;9.15;;;22.90;74.60;;;;;;5031262;28;20029;-66
2022/08/20 00:55:48;;;;;;;12.95;8.27;;;23.00;74.80;;;;;;5021641;28;20028;-66
2022/08/20 00:58:14;;;;;;;15.55;9.25;;;22.90;75.00;;;;;;5019166;28;20363;-66
2022/08/20 01:00:44;;;;;;;12.50;8.05;;;22.90;75.30;;;;;;5033025;28;20029;-66
2022/08/20 01:03:12;;;;;;;13.00;8.55;;;22.90;75.70;;;;;;5028102;28;20405;-66
2022/08/20 01:05:44;;;;;;;12.85;8.43;;;22.90;76.00;;;;;;5020454;28;20087;-66
2022/08/20 01:08:10;;;;;;;13.07;8.57;;;22.90;76.30;;;;;;5027059;28;20025;-66
2022/08/20 01:10:39;;;;;;;13.70;8.55;;;22.90;76.50;;;;;;5035412;28;20033;-66
2022/08/20 01:13:09;;;;;;;15.05;9.57;;;22.90;76.80;;;;;;5024655;28;20029;-66
2022/08/20 01:15:38;;;;;;;16.17;11.55;;;22.80;76.90;;;;;;5017728;28;20073;-66
2022/08/20 01:18:06;;;;;;;14.52;9.95;;;22.80;77.10;;;;;;5012762;28;20037;-66
2022/08/20 01:20:42;;;;;;;14.15;9.27;;;22.80;77.20;;;;;;5028912;28;20033;-66
2022/08/20 01:23:26;;;;;;;13.55;9.02;;;22.80;77.40;;;;;;5023438;28;20033;-66
2022/08/20 01:26:01;;;;;;;15.48;9.57;;;22.80;77.50;;;;;;5013848;28;20080;-67
2022/08/20 01:28:33;;;;;;;14.25;9.63;;;22.70;77.60;;;;;;5016736;28;20474;-66
2022/08/20 01:30:59;;;;;;;13.85;8.95;;;22.80;77.80;;;;;;5036290;28;20347;-66
2022/08/20 01:33:24;;;;;;;14.60;8.88;;;22.70;77.80;;;;;;5016795;28;21137;-66
2022/08/20 01:35:51;;;;;;;15.60;9.82;;;22.70;77.80;;;;;;5027568;28;20041;-66
2022/08/20 01:38:18;;;;;;;14.38;9.38;;;22.70;77.90;;;;;;5022990;28;20025;-66
2022/08/20 01:41:06;;;;;;;13.05;8.85;;;22.70;78.00;;;;;;5036060;28;20029;-66
2022/08/20 01:43:32;;;;;;;12.82;8.38;;;22.70;78.10;;;;;;5016796;28;20026;-66
2022/08/20 01:45:58;;;;;;;12.63;8.02;;;22.70;78.20;;;;;;5014812;28;20447;-66
2022/08/20 01:48:24;;;;;;;12.55;7.07;;;22.60;78.10;;;;;;5021236;28;20040;-66
2022/08/20 01:51:16;;;;;;;11.75;7.60;;;22.60;78.10;;;;;;5027197;28;20022;-66
2022/08/20 01:53:49;;;;;;;10.30;6.55;;;22.60;78.10;;;;;;5018435;28;20081;-67
2022/08/20 01:56:18;;;;;;;12.75;6.60;;;22.60;78.20;;;;;;5016930;28;20084;-67
2022/08/20 01:58:48;;;;;;;10.23;6.90;;;22.60;78.30;;;;;;5020668;28;20112;-66
2022/08/20 02:01:35;;;;;;;11.18;6.97;;;22.50;78.30;;;;;;5013729;28;20030;-67
2022/08/20 02:04:04;;;;;;;9.35;6.32;;;22.50;78.30;;;;;;5016946;28;20105;-66
2022/08/20 02:06:33;;;;;;;10.70;6.47;;;22.50;78.40;;;;;;5026586;28;20036;-67
2022/08/20 02:09:01;;;;;;;11.00;6.90;;;22.50;78.40;;;;;;5017558;28;20018;-66
2022/08/20 02:11:28;;;;;;;10.52;6.88;;;22.40;78.30;;;;;;5013848;28;20037;-66
2022/08/20 02:13:56;;;;;;;11.18;6.57;;;22.50;78.50;;;;;;5012439;28;20466;-66
2022/08/20 02:16:28;;;;;;;10.73;7.47;;;22.50;78.60;;;;;;5023896;28;20036;-67
2022/08/20 02:18:58;;;;;;;9.60;5.97;;;22.40;78.40;;;;;;5021865;28;20053;-66
2022/08/20 02:21:27;;;;;;;12.45;7.53;;;22.50;78.50;;;;;;5029119;28;20037;-67
2022/08/20 02:23:54;;;;;;;12.88;7.78;;;22.40;78.40;;;;;;5019120;28;20116;-66
2022/08/20 02:26:20;;;;;;;11.38;6.72;;;22.50;78.50;;;;;;5012429;28;20136;-66
2022/08/20 02:28:48;;;;;;;10.88;7.07;;;22.40;78.50;;;;;;5014177;28;20089;-66
2022/08/20 02:31:15;;;;;;;10.27;6.45;;;22.50;78.60;;;;;;5028695;28;20075;-66
2022/08/20 02:33:41;;;;;;;13.25;6.68;;;22.40;78.60;;;;;;5022655;28;20124;-66
2022/08/20 02:36:07;;;;;;;10.90;6.68;;;22.40;78.70;;;;;;5020540;28;20132;-66
2022/08/20 02:38:34;;;;;;;10.73;7.22;;;22.40;78.80;;;;;;5024281;28;20034;-66
2022/08/20 02:41:01;;;;;;;11.32;6.63;;;22.40;78.80;;;;;;5033302;28;20025;-66
2022/08/20 02:43:27;;;;;;;10.52;6.78;;;22.40;78.80;;;;;;5021608;28;20026;-66
2022/08/20 02:45:52;;;;;;;11.57;6.70;;;22.40;78.80;;;;;;5023496;28;20025;-66
2022/08/20 02:48:21;;;;;;;9.73;6.40;;;22.40;78.90;;;;;;5011530;28;20041;-66
2022/08/20 02:51:02;;;;;;;9.68;6.82;;;22.40;79.00;;;;;;5010895;28;20037;-66
2022/08/20 02:53:29;;;;;;;;;;;22.40;78.90;;;;;;5010511;28;20040;-66
2022/08/20 02:55:56;;;;;;;8.70;5.47;;;22.40;78.80;;;;;;5010162;28;19941;-67
2022/08/20 02:58:22;;;;;;;9.90;6.63;;;22.30;78.80;;;;;;5013739;28;20065;-66
2022/08/20 03:00:48;;;;;;;10.80;7.28;;;22.30;78.80;;;;;;5023861;28;20029;-66
2022/08/20 03:03:14;;;;;;;9.95;6.57;;;22.30;78.80;;;;;;5025662;28;20088;-66
2022/08/20 03:05:43;;;;;;;11.65;6.35;;;22.30;78.90;;;;;;5014150;28;20033;-66
2022/08/20 03:08:11;;;;;;;10.30;6.82;;;22.30;78.80;;;;;;5012562;28;20340;-66
2022/08/20 03:10:39;;;;;;;9.80;6.80;;;22.30;78.70;;;;;;4995614;28;20030;-66
2022/08/20 03:13:10;;;;;;;10.82;6.72;;;22.30;78.70;;;;;;5013369;28;20427;-66
2022/08/20 03:15:35;;;;;;;9.27;6.37;;;22.30;78.70;;;;;;5013503;28;20455;-66
2022/08/20 03:18:02;;;;;;;9.70;6.43;;;22.30;78.70;;;;;;5010269;28;20279;-66
2022/08/20 03:20:28;;;;;;;9.48;6.38;;;22.30;78.60;;;;;;5011141;28;20352;-66
2022/08/20 03:22:55;;;;;;;9.43;5.60;;;22.30;78.60;;;;;;5012690;28;20033;-66
2022/08/20 03:25:21;;;;;;;9.57;6.13;;;22.30;78.60;;;;;;5012607;28;20084;-66
2022/08/20 03:27:48;;;;;;;10.07;5.90;;;22.30;78.70;;;;;;5010211;28;20034;-67
2022/08/20 03:30:15;;;;;;;10.48;6.20;;;22.30;78.70;;;;;;5010999;28;20042;-66
2022/08/20 03:32:42;;;;;;;10.32;5.97;;;22.30;78.80;;;;;;5011404;28;20125;-66
2022/08/20 03:35:11;;;;;;;11.18;6.63;;;22.30;78.80;;;;;;5006296;28;20029;-66
2022/08/20 03:37:37;;;;;;;11.32;5.60;;;22.20;78.80;;;;;;5013211;28;20028;-66
2022/08/20 03:40:06;;;;;;;9.23;5.53;;;22.20;78.70;;;;;;5011452;28;20018;-66
2022/08/20 03:42:32;;;;;;;9.35;6.13;;;22.20;78.70;;;;;;5010872;28;20033;-66
2022/08/20 03:44:57;;;;;;;10.38;6.63;;;22.20;78.80;;;;;;5012172;28;20076;-66
2022/08/20 03:47:23;;;;;;;10.15;6.20;;;22.20;78.80;;;;;;5013205;28;20028;-66
2022/08/20 03:49:49;;;;;;;9.70;5.78;;;22.20;78.80;;;;;;5007159;28;20501;-66
2022/08/20 03:52:16;;;;;;;9.38;5.95;;;22.20;78.80;;;;;;4995725;28;20036;-66
2022/08/20 03:54:44;;;;;;;9.98;6.10;;;22.20;78.90;;;;;;5011461;28;20117;-66
2022/08/20 03:57:13;;;;;;;11.57;6.47;;;22.20;79.00;;;;;;5026911;28;20033;-66
2022/08/20 03:59:39;;;;;;;9.50;6.38;;;22.20;79.00;;;;;;5012150;28;20050;-66
2022/08/20 04:02:05;;;;;;;10.15;5.97;;;22.20;79.10;;;;;;5019625;28;20028;-66
2022/08/20 04:04:31;;;;;;;11.23;5.97;;;22.20;79.10;;;;;;5023006;28;20026;-66
2022/08/20 04:06:57;;;;;;;9.57;5.63;;;22.20;79.10;;;;;;5032562;28;20021;-66
2022/08/20 04:09:22;;;;;;;9.68;5.68;;;22.20;79.20;;;;;;5015905;28;20026;-66
2022/08/20 04:11:48;;;;;;;8.50;5.57;;;22.20;79.10;;;;;;5020791;28;20025;-66
2022/08/20 04:14:14;;;;;;;9.45;5.28;;;22.20;79.00;;;;;;5029704;28;20609;-66
2022/08/20 04:16:40;;;;;;;10.00;5.90;;;22.10;78.90;;;;;;5030367;28;20028;-66
2022/08/20 04:19:06;;;;;;;10.90;5.78;;;22.10;78.90;;;;;;5016753;28;20040;-66
2022/08/20 04:21:33;;;;;;;8.98;5.45;;;22.10;79.00;;;;;;5029222;28;20037;-66
2022/08/20 04:24:01;;;;;;;9.13;5.78;;;22.10;79.00;;;;;;5031040;28;20040;-66
2022/08/20 04:26:27;;;;;;;9.15;5.57;;;22.10;79.10;;;;;;5027870;28;20043;-66
2022/08/20 04:28:54;;;;;;;9.02;6.05;;;22.10;79.10;;;;;;5019673;28;20026;-66
2022/08/20 04:31:20;;;;;;;11.65;6.03;;;22.10;79.20;;;;;;5015079;28;20030;-66
2022/08/20 04:33:45;;;;;;;9.00;5.75;;;22.10;79.10;;;;;;5016799;28;20048;-66
2022/08/20 04:36:12;;;;;;;10.77;6.03;;;22.10;79.20;;;;;;5015854;28;20120;-66
2022/08/20 04:38:38;;;;;;;9.05;5.82;;;22.10;79.10;;;;;;5003952;28;20407;-66
2022/08/20 04:41:04;;;;;;;9.52;6.25;;;22.10;79.20;;;;;;5011192;28;20109;-65
2022/08/20 04:43:35;;;;;;;8.23;5.53;;;22.10;79.20;;;;;;5026388;28;20483;-65
2022/08/20 04:46:04;;;;;;;11.60;6.97;;;22.10;79.30;;;;;;5032573;28;20102;-65
2022/08/20 04:48:31;;;;;;;9.68;5.20;;;22.00;79.30;;;;;;5030891;28;20030;-65
2022/08/20 04:50:58;;;;;;;9.50;5.55;;;22.10;79.40;;;;;;5023531;28;20040;-65
2022/08/20 04:53:26;;;;;;;10.25;6.07;;;22.00;79.30;;;;;;5021373;28;20026;-65
2022/08/20 04:55:55;;;;;;;11.63;6.50;;;22.00;79.30;;;;;;5015062;28;20413;-66
2022/08/20 04:58:29;;;;;;;11.13;6.25;;;22.10;79.30;;;;;;5015422;28;20021;-66
2022/08/20 05:00:58;;;;;;;10.98;6.72;;;22.00;79.20;;;;;;5012560;28;20398;-65
2022/08/20 05:03:24;;;;;;;9.60;6.35;;;22.00;79.20;;;;;;5007735;28;20033;-65
2022/08/20 05:05:51;;;;;;;9.60;6.30;;;22.00;79.20;;;;;;5010747;28;20031;-64
2022/08/20 05:08:19;;;;;;;9.80;6.03;;;22.00;79.30;;;;;;5008419;28;20026;-64
2022/08/20 05:10:46;;;;;;;10.02;6.25;;;22.00;79.30;;;;;;5011014;28;20470;-64
2022/08/20 05:13:12;;;;;;;8.88;5.00;;;22.00;79.40;;;;;;5010851;28;20049;-65
2022/08/20 05:15:38;;;;;;;8.55;4.65;;;22.00;79.30;;;;;;5011416;28;20022;-65
2022/08/20 05:18:07;;;;;;;7.10;3.80;;;22.00;79.10;;;;;;5009120;28;20105;-65
2022/08/20 05:20:38;;;;;;;7.55;3.75;;;22.00;79.00;;;;;;5009795;28;20111;-65
2022/08/20 05:23:05;;;;;;;6.25;3.15;;;21.90;78.80;;;;;;5022792;28;20030;-65
2022/08/20 05:25:31;;;;;;;6.13;2.67;;;21.90;78.60;;;;;;5012835;28;20454;-64
2022/08/20 05:28:02;;;;;;;7.88;3.28;;;21.80;78.40;;;;;;5007518;28;20033;-65
2022/08/20 05:30:32;;;;;;;6.63;3.20;;;21.80;78.40;;;;;;5009412;28;20033;-65
2022/08/20 05:33:05;;;;;;;7.15;3.40;;;21.70;78.40;;;;;;5011004;28;20536;-65
2022/08/20 05:35:37;;;;;;;7.93;3.30;;;21.70;78.50;;;;;;5010091;28;20030;-65
2022/08/20 05:38:07;;;;;;;7.75;3.40;;;21.70;78.50;;;;;;5010962;28;20030;-65
2022/08/20 05:40:33;;;;;;;7.13;3.13;;;21.70;78.60;;;;;;5010336;28;20037;-65
2022/08/20 05:42:59;;;;;;;6.55;3.88;;;21.70;78.60;;;;;;5012158;28;20025;-65
2022/08/20 05:45:25;;;;;;;8.82;3.90;;;21.70;78.60;;;;;;5010140;28;20091;-65
2022/08/20 05:47:50;;;;;;;6.28;3.15;;;21.70;78.60;;;;;;5011227;28;20478;-65
2022/08/20 05:50:17;;;;;;;7.80;3.42;;;21.70;78.70;;;;;;5011382;28;20022;-65
2022/08/20 05:52:43;;;;;;;6.78;3.40;;;21.70;78.70;;;;;;4993774;28;20029;-65
2022/08/20 05:55:12;;;;;;;8.30;3.90;;;21.70;78.80;;;;;;5009266;28;20066;-65
2022/08/20 05:57:38;;;;;;;8.95;3.65;;;21.70;78.80;;;;;;5009350;28;20109;-65
2022/08/20 06:00:08;;;;;;;8.30;3.42;;;21.70;78.80;;;;;;5009246;28;20030;-66
2022/08/20 06:05:26;;;;;;;8.30;3.53;;;21.70;78.70;;;;;;5008837;28;20030;-66
2022/08/20 06:07:52;;;;;;;7.30;3.45;;;21.70;78.50;;;;;;5011378;28;20450;-66
2022/08/20 06:10:18;;;;;;;7.10;3.92;;;21.70;78.50;;;;;;5010040;28;20045;-67
2022/08/20 06:12:44;;;;;;;6.28;3.28;;;21.70;78.40;;;;;;5007482;28;20109;-66
2022/08/20 06:15:11;;;;;;;6.78;3.30;;;21.70;78.50;;;;;;5008595;28;20049;-66
2022/08/20 06:17:37;;;;;;;9.23;4.00;;;21.70;78.50;;;;;;5009687;28;20026;-65
2022/08/20 06:20:06;;;;;;;8.77;3.30;;;21.70;78.40;;;;;;5008068;28;20029;-66
2022/08/20 06:22:32;;;;;;;6.85;3.08;;;21.70;78.40;;;;;;5007854;28;20026;-66
2022/08/20 06:24:58;;;;;;;7.00;3.30;;;21.80;78.40;;;;;;5008862;28;20087;-66
2022/08/20 06:27:25;;;;;;;8.70;3.63;;;21.80;78.40;;;;;;5013870;28;20021;-66
2022/08/20 06:29:51;;;;;;;7.10;3.63;;;21.90;78.40;;;;;;5034879;28;20041;-66
2022/08/20 06:32:18;;;;;;;6.93;3.70;;;21.90;78.40;;;;;;5035116;28;20127;-66
2022/08/20 06:34:44;;;;;;;7.75;3.90;;;22.10;78.20;;;;;;5027485;28;20041;-65
2022/08/20 06:37:15;;;;;;;8.15;3.58;;;22.30;78.50;;;;;;5019294;28;20025;-66
2022/08/20 06:39:41;;;;;;;6.55;3.70;;;22.50;78.00;;;;;;5035630;28;20051;-66
2022/08/20 06:42:07;;;;;;;9.82;3.90;;;22.60;77.00;;;;;;5034155;28;20029;-66
2022/08/20 06:44:33;;;;;;;8.55;3.70;;;22.60;76.90;;;;;;5034184;28;20336;-66
2022/08/20 06:47:03;;;;;;;8.57;3.70;;;22.60;76.90;;;;;;5034916;28;20036;-66
2022/08/20 06:49:29;;;;;;;8.73;3.67;;;22.60;76.90;;;;;;5030117;28;20455;-66
2022/08/20 06:51:55;;;;;;;8.35;4.53;;;22.50;76.80;;;;;;5015491;28;20033;-66
2022/08/20 06:54:20;;;;;;;6.97;3.75;;;22.50;76.90;;;;;;5018707;28;20040;-66
2022/08/20 06:56:46;;;;;;;9.23;4.72;;;22.50;76.90;;;;;;5016947;28;20100;-66
2022/08/20 06:59:12;;;;;;;8.30;4.05;;;22.60;76.80;;;;;;5010980;28;20546;-66
2022/08/20 07:01:37;;;;;;;11.52;4.35;;;22.60;76.60;;;;;;5028840;28;20446;-66
2022/08/20 07:04:04;;;;;;;7.60;4.25;;;22.60;76.70;;;;;;5013334;28;20152;-66
2022/08/20 07:06:30;;;;;;;9.60;4.28;;;22.60;76.70;;;;;;5023246;28;20052;-66
2022/08/20 07:08:56;;;;;;;10.35;4.30;;;22.70;76.80;;;;;;5034589;28;20026;-66
2022/08/20 07:11:22;;;;;;;6.40;3.42;;;22.80;76.70;;;;;;5034380;28;20109;-66
2022/08/20 07:13:48;;;;;;;10.10;4.00;;;23.10;76.00;;;;;;5034139;28;20037;-66
2022/08/20 07:16:14;;;;;;;6.95;3.58;;;23.30;75.30;;;;;;5034526;28;20029;-66
2022/08/20 07:18:40;;;;;;;8.05;3.05;;;23.40;74.60;;;;;;5034627;28;20203;-66
2022/08/20 07:21:06;;;;;;;6.57;3.53;;;23.60;73.90;;;;;;5030283;28;20060;-66
2022/08/20 07:23:32;;;;;;;7.88;3.30;;;23.90;73.30;;;;;;5014159;28;20037;-66
2022/08/20 07:25:57;;;;;;;7.00;3.17;;;24.10;72.60;;;;;;5034788;28;20093;-66
2022/08/20 07:28:27;;;;;;;7.97;2.92;;;24.30;71.80;;;;;;5034548;28;20034;-66
2022/08/20 07:33:39;;;;;;;8.95;3.60;;;24.80;69.90;;;;;;5034722;28;20312;-66
2022/08/20 07:36:05;;;;;;;6.78;3.05;;;24.90;68.70;;;;;;5021548;28;20025;-66
2022/08/20 07:38:32;;;;;;;7.32;2.47;;;25.10;68.30;;;;;;5034652;28;20510;-66
2022/08/20 07:41:04;;;;;;;7.88;2.72;;;25.20;67.90;;;;;;5036554;28;20426;-66
2022/08/20 07:43:30;;;;;;;9.20;3.45;;;25.30;67.20;;;;;;5041095;28;20040;-67
2022/08/20 07:46:00;;;;;;;9.38;3.20;;;25.50;67.10;;;;;;5040561;28;20141;-66
2022/08/20 07:48:28;;;;;;;6.55;2.80;;;25.50;66.10;;;;;;5040848;28;20032;-66
2022/08/20 07:50:59;;;;;;;5.57;2.40;;;25.60;65.30;;;;;;5020189;28;20153;-66
2022/08/20 07:53:24;;;;;;;;;;;25.70;65.00;;;;;;5041049;28;20075;-66
2022/08/20 07:55:52;;;;;;;8.75;2.58;;;25.80;65.20;;;;;;5020582;28;19962;-66
2022/08/20 07:58:22;;;;;;;7.22;2.72;;;25.90;64.60;;;;;;5040681;28;20342;-66
2022/08/20 08:00:48;;;;;;;7.18;2.42;;;26.00;63.90;;;;;;5040563;28;20033;-66
2022/08/20 08:03:14;;;;;;;5.90;2.70;;;26.10;63.70;;;;;;5027972;28;20087;-66
2022/08/20 08:05:43;;;;;;;8.15;2.67;;;26.10;63.20;;;;;;5023416;28;20030;-66
2022/08/20 08:08:13;;;;;;;5.63;2.58;;;26.20;63.00;;;;;;5032746;28;20026;-66
2022/08/20 08:10:40;;;;;;;6.40;2.57;;;26.30;62.50;;;;;;5035317;28;20029;-66
2022/08/20 08:13:11;;;;;;;7.10;2.90;;;26.40;62.10;;;;;;5039502;28;20321;-66
2022/08/20 08:15:40;;;;;;;8.02;2.88;;;26.50;62.00;;;;;;5020948;28;20022;-66
2022/08/20 08:18:15;;;;;;;5.90;2.30;;;26.60;61.60;;;;;;5013636;28;20029;-66
2022/08/20 08:20:42;;;;;;;5.30;2.10;;;26.70;61.20;;;;;;5039792;28;20123;-66
2022/08/20 08:23:13;;;;;;;8.25;2.70;;;26.80;60.80;;;;;;5038276;28;20022;-66
2022/08/20 08:25:41;;;;;;;5.90;2.65;;;26.90;60.40;;;;;;5026132;28;20033;-66
2022/08/20 08:28:10;;;;;;;8.38;2.40;;;27.00;60.00;;;;;;5031146;28;20104;-66
2022/08/20 08:30:37;;;;;;;6.65;2.35;;;27.10;58.90;;;;;;5038801;28;20029;-66
2022/08/20 08:35:47;;;;;;;5.95;2.42;;;27.00;59.20;;;;;;5038369;28;20095;-66
2022/08/20 08:38:13;;;;;;;6.32;2.05;;;27.10;58.80;;;;;;5027544;28;20434;-66
2022/08/20 08:40:40;;;;;;;6.45;2.35;;;27.20;58.50;;;;;;5033125;28;20104;-66
2022/08/20 08:43:06;;;;;;;7.28;2.25;;;27.20;58.20;;;;;;5031480;28;20037;-66
2022/08/20 08:45:42;;;;;;;6.55;2.53;;;27.20;57.90;;;;;;5039349;28;20083;-66
2022/08/20 08:48:15;;;;;;;10.02;2.60;;;27.30;57.30;;;;;;5040343;28;20091;-66
2022/08/20 08:50:41;;;;;;;6.55;2.20;;;27.30;56.80;;;;;;5036588;28;20033;-66
2022/08/20 08:53:26;;;;;;;8.48;2.47;;;27.30;56.30;;;;;;5019455;28;20031;-66
2022/08/20 08:55:51;;;;;;;7.45;2.72;;;27.40;56.10;;;;;;5009616;28;20089;-65
2022/08/20 08:58:17;;;;;;;7.28;1.98;;;27.50;56.00;;;;;;5027292;28;20343;-66
2022/08/20 09:00:44;;;;;;;7.72;2.08;;;27.50;55.50;;;;;;5036800;28;20053;-66
2022/08/20 09:03:20;;;;;;;5.38;2.28;;;27.70;55.60;;;;;;5022793;28;20033;-66
2022/08/20 09:05:50;;;;;;;8.82;1.98;;;27.70;55.20;;;;;;5024057;28;20382;-65
2022/08/20 09:08:22;;;;;;;7.95;1.80;;;27.80;55.00;;;;;;5014613;28;20037;-66
2022/08/20 09:10:48;;;;;;;8.23;2.30;;;27.80;54.10;;;;;;5031784;28;20092;-66
2022/08/20 09:13:13;;;;;;;5.60;1.77;;;27.80;53.70;;;;;;5030318;28;20046;-66
2022/08/20 09:15:39;;;;;;;5.10;1.75;;;27.80;53.60;;;;;;5030401;28;20120;-66
2022/08/20 09:18:04;;;;;;;8.20;2.08;;;27.90;53.50;;;;;;5036730;28;20040;-66
2022/08/20 09:20:30;;;;;;;6.38;2.42;;;28.00;53.40;;;;;;5036508;28;20030;-66
2022/08/20 09:22:56;;;;;;;6.40;2.00;;;28.10;53.10;;;;;;5029120;28;20117;-66
2022/08/20 09:25:23;;;;;;;8.13;2.42;;;28.20;52.70;;;;;;5026022;28;20418;-66
2022/08/20 09:27:48;;;;;;;6.65;2.00;;;28.30;52.60;;;;;;5029917;28;20417;-66
2022/08/20 09:30:15;;;;;;;6.95;2.28;;;28.40;52.60;;;;;;5028451;28;20034;-67
2022/08/20 09:32:41;;;;;;;9.75;2.83;;;28.50;52.10;;;;;;5013523;28;20040;-67
2022/08/20 09:35:09;;;;;;;5.95;2.10;;;28.50;51.30;;;;;;5029086;28;20105;-66
2022/08/20 09:37:35;;;;;;;5.63;2.08;;;28.50;50.90;;;;;;5008632;28;20035;-66
2022/08/20 09:40:01;;;;;;;6.07;1.90;;;28.70;50.90;;;;;;5034415;28;20453;-66
2022/08/20 09:42:33;;;;;;;8.48;2.20;;;28.80;51.40;;;;;;5036733;28;20033;-66
2022/08/20 09:44:59;;;;;;;5.53;2.08;;;28.90;50.20;;;;;;5033492;28;20037;-66
2022/08/20 09:47:25;;;;;;;6.72;2.13;;;29.00;49.90;;;;;;5026284;28;20033;-66
2022/08/20 09:49:52;;;;;;;7.80;2.00;;;29.00;49.40;;;;;;5034050;28;20042;-66
2022/08/20 09:52:27;;;;;;;7.20;2.20;;;29.10;49.20;;;;;;5036023;28;20029;-66
2022/08/20 09:54:58;;;;;;;10.23;2.88;;;29.10;48.80;;;;;;5024328;28;20061;-66
2022/08/20 09:57:24;;;;;;;5.85;1.90;;;28.70;48.80;;;;;;5005316;28;20030;-66
2022/08/20 10:00:03;;;;;;;7.28;2.15;;;28.30;48.80;;;;;;5026984;28;20037;-66
2022/08/20 10:02:38;;;;;;;6.47;1.95;;;27.90;48.60;;;;;;5036584;28;20037;-66
2022/08/20 10:05:04;;;;;;;5.22;1.65;;;27.90;48.80;;;;;;5031644;28;20038;-66
2022/08/20 10:07:29;;;;;;;6.35;2.05;;;28.00;48.30;;;;;;5033094;28;20115;-66
2022/08/20 10:09:55;;;;;;;7.20;1.52;;;28.20;48.10;;;;;;5034528;28;20034;-66
2022/08/20 10:12:21;;;;;;;5.72;2.00;;;28.40;48.10;;;;;;5034328;28;20026;-66
2022/08/20 10:14:46;;;;;;;9.70;1.95;;;28.50;47.60;;;;;;5035480;28;20061;-66
2022/08/20 10:17:12;;;;;;;8.30;2.20;;;28.70;47.10;;;;;;5035713;28;20076;-66
2022/08/20 10:19:38;;;;;;;5.95;1.88;;;28.50;46.60;;;;;;5035386;28;20025;-66
2022/08/20 10:22:04;;;;;;;5.82;1.70;;;28.20;46.50;;;;;;5029314;28;20018;-66
2022/08/20 10:24:30;;;;;;;7.85;2.00;;;27.90;46.70;;;;;;5024326;28;20440;-66
2022/08/20 10:26:57;;;;;;;5.32;1.70;;;27.80;46.90;;;;;;5029590;28;20025;-66
2022/08/20 10:29:24;;;;;;;7.18;1.88;;;27.70;46.90;;;;;;5035451;28;20459;-66
2022/08/20 10:31:49;;;;;;;8.50;2.13;;;27.80;47.50;;;;;;5029820;28;20057;-66
2022/08/20 10:34:15;;;;;;;7.45;2.00;;;27.90;46.80;;;;;;5035326;28;20447;-66
2022/08/20 10:36:41;;;;;;;7.00;1.70;;;28.10;46.80;;;;;;5035491;28;20037;-66
2022/08/20 10:39:07;;;;;;;4.35;1.45;;;28.30;46.30;;;;;;5034439;28;20095;-66
2022/08/20 10:41:33;;;;;;;7.25;2.15;;;28.50;45.90;;;;;;5025135;28;20026;-66
2022/08/20 10:43:58;;;;;;;5.38;1.95;;;28.70;45.60;;;;;;5014558;28;20044;-66
2022/08/20 10:46:24;;;;;;;6.90;1.90;;;28.40;45.40;;;;;;5022121;28;20025;-66
2022/08/20 10:48:50;;;;;;;6.13;1.52;;;28.10;45.80;;;;;;5035404;28;20194;-66
2022/08/20 10:51:15;;;;;;;4.95;1.48;;;28.00;46.00;;;;;;5034775;28;20446;-66
2022/08/20 10:53:41;;;;;;;8.05;2.08;;;28.10;45.60;;;;;;5034596;28;20036;-66
2022/08/20 10:56:07;;;;;;;5.93;2.03;;;28.10;45.50;;;;;;5034319;28;20056;-66
2022/08/20 10:58:32;;;;;;;7.38;1.95;;;28.30;45.30;;;;;;5034568;28;20032;-66
2022/08/20 11:00:58;;;;;;;6.72;1.85;;;28.50;44.80;;;;;;5025107;28;20025;-66
2022/08/20 11:03:24;;;;;;;6.13;1.65;;;28.70;44.60;;;;;;5034276;28;20065;-66
2022/08/20 11:05:49;;;;;;;6.53;2.33;;;28.80;44.50;;;;;;5035316;28;20041;-66
2022/08/20 11:08:15;;;;;;;5.55;1.60;;;29.00;44.50;;;;;;5023632;28;20044;-66
2022/08/20 11:10:41;;;;;;;5.60;1.80;;;29.00;44.40;;;;;;5035105;28;20112;-66
2022/08/20 11:13:07;;;;;;;5.10;1.65;;;29.00;44.00;;;;;;5034649;28;20036;-66
2022/08/20 11:15:36;;;;;;;5.70;1.60;;;29.10;43.90;;;;;;5021486;28;20059;-66
2022/08/20 11:18:03;;;;;;;6.75;2.13;;;29.10;43.60;;;;;;5035329;28;20033;-66
2022/08/20 11:20:30;;;;;;;5.13;1.80;;;29.10;43.40;;;;;;5033980;28;20357;-66
2022/08/20 11:22:57;;;;;;;8.35;1.83;;;29.20;43.10;;;;;;5034865;28;20030;-66
2022/08/20 11:25:22;;;;;;;6.15;1.90;;;29.30;42.80;;;;;;5035201;28;20414;-66
2022/08/20 11:27:50;;;;;;;5.97;1.50;;;29.00;42.60;;;;;;5034867;28;20103;-66
2022/08/20 11:30:20;;;;;;;7.55;1.80;;;28.80;42.70;;;;;;5033821;28;20030;-66
2022/08/20 11:32:45;;;;;;;7.25;2.03;;;28.70;42.80;;;;;;5021003;28;20194;-66
2022/08/20 11:35:12;;;;;;;4.53;1.45;;;28.70;43.20;;;;;;5034989;28;20403;-66
2022/08/20 11:37:39;;;;;;;5.90;1.63;;;28.80;43.10;;;;;;5034721;28;20061;-66
2022/08/20 11:40:07;;;;;;;7.30;1.67;;;28.90;43.10;;;;;;5034893;28;20435;-66
2022/08/20 11:42:33;;;;;;;5.22;1.40;;;29.10;42.80;;;;;;5034970;28;20057;-66
2022/08/20 11:44:59;;;;;;;6.57;1.60;;;29.20;42.60;;;;;;5034760;28;20040;-66
2022/08/20 11:47:27;;;;;;;7.38;1.75;;;29.20;42.30;;;;;;5034343;28;20033;-66
2022/08/20 11:50:07;;;;;;;5.78;1.45;;;29.30;42.20;;;;;;5029331;28;20025;-66
2022/08/20 11:52:34;;;;;;;9.45;1.73;;;29.30;41.80;;;;;;5020876;28;20030;-66
2022/08/20 11:54:59;;;;;;;5.75;1.88;;;29.10;41.70;;;;;;5034654;28;20139;-66
2022/08/20 11:57:32;;;;;;;6.28;1.90;;;29.10;41.80;;;;;;5035055;28;20038;-66
2022/08/20 11:59:59;;;;;;;5.68;1.85;;;29.10;41.60;;;;;;5033823;28;20124;-66
2022/08/20 12:02:26;;;;;;;7.88;1.67;;;29.10;41.60;;;;;;5017501;28;20441;-66
2022/08/20 12:04:52;;;;;;;7.85;2.03;;;29.20;41.50;;;;;;5029447;28;20125;-66
2022/08/20 12:07:20;;;;;;;5.10;1.50;;;29.30;41.40;;;;;;5034320;28;20068;-66
2022/08/20 12:09:47;;;;;;;5.63;1.80;;;29.40;41.20;;;;;;5034702;28;20072;-66
2022/08/20 12:12:13;;;;;;;6.22;1.70;;;29.50;41.00;;;;;;5034721;28;20022;-66
2022/08/20 12:14:39;;;;;;;5.30;1.40;;;29.70;40.80;;;;;;5034096;28;20087;-66
2022/08/20 12:17:09;;;;;;;6.80;2.00;;;29.70;40.50;;;;;;5034335;28;20108;-66
2022/08/20 12:19:37;;;;;;;6.78;1.83;;;29.50;40.30;;;;;;5032427;28;20121;-66
2022/08/20 12:22:03;;;;;;;7.28;1.70;;;29.20;40.40;;;;;;5045839;28;20030;-66
2022/08/20 12:24:28;;;;;;;6.00;1.58;;;29.00;40.50;;;;;;5033419;28;20033;-66
2022/08/20 12:26:54;;;;;;;6.88;1.70;;;28.80;40.40;;;;;;5035385;28;20108;-66
2022/08/20 12:29:20;;;;;;;6.18;1.80;;;28.70;40.30;;;;;;5038188;28;20034;-66
2022/08/20 12:31:45;;;;;;;9.50;2.42;;;28.60;40.30;;;;;;5038469;28;20091;-66
2022/08/20 12:34:11;;;;;;;6.10;1.67;;;28.60;40.10;;;;;;5025390;28;20033;-66
2022/08/20 12:36:37;;;;;;;4.38;1.55;;;28.60;40.00;;;;;;5005170;28;20023;-66
2022/08/20 12:39:02;;;;;;;6.07;1.48;;;28.60;39.60;;;;;;5005835;28;20022;-66
2022/08/20 12:41:28;;;;;;;5.97;1.67;;;28.60;39.60;;;;;;5008055;28;20341;-66
2022/08/20 12:43:54;;;;;;;6.15;2.03;;;28.60;39.70;;;;;;5005782;28;20060;-66
2022/08/20 12:46:19;;;;;;;5.30;1.77;;;28.50;39.30;;;;;;5014202;28;20361;-66
2022/08/20 12:48:45;;;;;;;6.63;2.10;;;28.40;39.30;;;;;;5022635;28;20025;-66
2022/08/20 12:51:10;;;;;;;6.57;2.00;;;28.20;39.40;;;;;;5036714;28;20443;-66
2022/08/20 12:53:36;;;;;;;7.72;1.88;;;28.10;39.50;;;;;;5037092;28;20032;-66
2022/08/20 12:56:03;;;;;;;5.95;1.80;;;27.90;40.20;;;;;;5033479;28;20406;-66